sensor_id;sensor_type;location;lat;lon;timestamp;P1;durP1;ratioP1;P2;durP2;ratioP2
4821;SDS011;2425;47.794;13.068;2022-07-25T00:01:56;9.57;;;8.63;;
4821;SDS011;2425;47.794;13.068;2022-07-25T00:04:23;10.00;;;9.10;;
4821;SDS011;2425;47.794;13.068;2022-07-25T00:06:50;9.33;;;8.50;;
4821;SDS011;2425;47.794;13.068;2022-07-25T00:09:16;10.20;;;9.40;;
4821;SDS011;2425;47.794;13.068;2022-07-25T00:11:43;10.53;;;9.50;;
4821;SDS011;2425;47.794;13.068;2022-07-25T00:14:10;9.63;;;8.83;;
4821;SDS011;2425;47.794;13.068;2022-07-25T00:16:38;10.97;;;9.73;;
4821;SDS011;2425;47.794;13.068;2022-07-25T00:19:05;9.30;;;8.53;;
4821;SDS011;2425;47.794;13.068;2022-07-25T00:21:32;10.23;;;9.33;;
4821;SDS011;2425;47.794;13.068;2022-07-25T00:23:59;10.07;;;9.07;;
4821;SDS011;2425;47.794;13.068;2022-07-25T00:26:26;10.57;;;9.50;;
4821;SDS011;2425;47.794;13.068;2022-07-25T00:28:53;11.27;;;9.63;;
4821;SDS011;2425;47.794;13.068;2022-07-25T00:31:19;10.37;;;9.47;;
4821;SDS011;2425;47.794;13.068;2022-07-25T00:33:47;10.23;;;8.73;;
4821;SDS011;2425;47.794;13.068;2022-07-25T00:36:14;11.43;;;9.87;;
4821;SDS011;2425;47.794;13.068;2022-07-25T00:38:41;10.50;;;9.53;;
4821;SDS011;2425;47.794;13.068;2022-07-25T00:41:08;13.10;;;9.70;;
4821;SDS011;2425;47.794;13.068;2022-07-25T00:43:34;10.20;;;9.10;;
4821;SDS011;2425;47.794;13.068;2022-07-25T00:46:01;10.70;;;9.60;;
4821;SDS011;2425;47.794;13.068;2022-07-25T00:48:28;11.03;;;9.63;;
4821;SDS011;2425;47.794;13.068;2022-07-25T00:50:56;10.93;;;9.80;;
4821;SDS011;2425;47.794;13.068;2022-07-25T00:53:24;11.63;;;9.40;;
4821;SDS011;2425;47.794;13.068;2022-07-25T00:55:51;10.57;;;9.50;;
4821;SDS011;2425;47.794;13.068;2022-07-25T00:58:18;10.47;;;9.57;;
4821;SDS011;2425;47.794;13.068;2022-07-25T01:00:45;10.10;;;9.20;;
4821;SDS011;2425;47.794;13.068;2022-07-25T01:03:12;11.20;;;9.50;;
4821;SDS011;2425;47.794;13.068;2022-07-25T01:05:38;12.30;;;10.53;;
4821;SDS011;2425;47.794;13.068;2022-07-25T01:08:07;11.83;;;9.80;;
4821;SDS011;2425;47.794;13.068;2022-07-25T01:10:34;10.90;;;9.87;;
4821;SDS011;2425;47.794;13.068;2022-07-25T01:13:01;9.90;;;9.00;;
4821;SDS011;2425;47.794;13.068;2022-07-25T01:15:28;10.27;;;9.37;;
4821;SDS011;2425;47.794;13.068;2022-07-25T01:17:55;10.70;;;9.80;;
4821;SDS011;2425;47.794;13.068;2022-07-25T01:20:23;10.77;;;9.67;;
4821;SDS011;2425;47.794;13.068;2022-07-25T01:22:51;9.63;;;8.73;;
4821;SDS011;2425;47.794;13.068;2022-07-25T01:25:19;10.77;;;9.77;;
4821;SDS011;2425;47.794;13.068;2022-07-25T01:27:46;12.13;;;10.17;;
4821;SDS011;2425;47.794;13.068;2022-07-25T01:30:13;10.30;;;9.50;;
4821;SDS011;2425;47.794;13.068;2022-07-25T01:32:42;14.00;;;9.90;;
4821;SDS011;2425;47.794;13.068;2022-07-25T01:35:09;11.00;;;10.00;;
4821;SDS011;2425;47.794;13.068;2022-07-25T01:37:38;9.03;;;8.33;;
4821;SDS011;2425;47.794;13.068;2022-07-25T01:40:05;11.27;;;10.13;;
4821;SDS011;2425;47.794;13.068;2022-07-25T01:42:33;11.43;;;10.43;;
4821;SDS011;2425;47.794;13.068;2022-07-25T01:45:00;10.83;;;9.50;;
4821;SDS011;2425;47.794;13.068;2022-07-25T01:47:27;11.70;;;9.50;;
4821;SDS011;2425;47.794;13.068;2022-07-25T01:49:54;10.97;;;9.67;;
4821;SDS011;2425;47.794;13.068;2022-07-25T01:52:20;11.00;;;10.10;;
4821;SDS011;2425;47.794;13.068;2022-07-25T01:54:48;11.97;;;8.90;;
4821;SDS011;2425;47.794;13.068;2022-07-25T01:57:15;10.50;;;9.50;;
4821;SDS011;2425;47.794;13.068;2022-07-25T01:59:42;10.70;;;9.43;;
4821;SDS011;2425;47.794;13.068;2022-07-25T02:02:09;9.80;;;9.00;;
4821;SDS011;2425;47.794;13.068;2022-07-25T02:04:36;15.07;;;9.87;;
4821;SDS011;2425;47.794;13.068;2022-07-25T02:07:03;10.60;;;9.60;;
4821;SDS011;2425;47.794;13.068;2022-07-25T02:09:30;11.03;;;9.70;;
4821;SDS011;2425;47.794;13.068;2022-07-25T02:11:58;9.53;;;8.83;;
4821;SDS011;2425;47.794;13.068;2022-07-25T02:14:24;10.13;;;9.23;;
4821;SDS011;2425;47.794;13.068;2022-07-25T02:16:51;10.63;;;9.67;;
4821;SDS011;2425;47.794;13.068;2022-07-25T02:19:18;9.90;;;9.20;;
4821;SDS011;2425;47.794;13.068;2022-07-25T02:21:45;11.03;;;9.30;;
4821;SDS011;2425;47.794;13.068;2022-07-25T02:24:12;9.63;;;8.83;;
4821;SDS011;2425;47.794;13.068;2022-07-25T02:26:38;10.57;;;9.23;;
4821;SDS011;2425;47.794;13.068;2022-07-25T02:29:06;10.07;;;9.27;;
4821;SDS011;2425;47.794;13.068;2022-07-25T02:31:33;11.20;;;10.00;;
4821;SDS011;2425;47.794;13.068;2022-07-25T02:34:00;10.83;;;9.83;;
4821;SDS011;2425;47.794;13.068;2022-07-25T02:36:27;10.07;;;9.27;;
4821;SDS011;2425;47.794;13.068;2022-07-25T02:38:54;10.50;;;9.50;;
4821;SDS011;2425;47.794;13.068;2022-07-25T02:41:21;10.83;;;9.83;;
4821;SDS011;2425;47.794;13.068;2022-07-25T02:43:47;10.87;;;9.70;;
4821;SDS011;2425;47.794;13.068;2022-07-25T02:46:15;10.10;;;9.10;;
4821;SDS011;2425;47.794;13.068;2022-07-25T02:48:42;12.43;;;9.60;;
4821;SDS011;2425;47.794;13.068;2022-07-25T02:51:09;10.50;;;9.60;;
4821;SDS011;2425;47.794;13.068;2022-07-25T02:53:36;10.67;;;8.83;;
4821;SDS011;2425;47.794;13.068;2022-07-25T02:56:02;13.73;;;9.10;;
4821;SDS011;2425;47.794;13.068;2022-07-25T02:58:30;9.80;;;8.90;;
4821;SDS011;2425;47.794;13.068;2022-07-25T03:00:56;12.23;;;10.37;;
4821;SDS011;2425;47.794;13.068;2022-07-25T03:03:25;10.60;;;9.60;;
4821;SDS011;2425;47.794;13.068;2022-07-25T03:05:51;10.70;;;9.80;;
4821;SDS011;2425;47.794;13.068;2022-07-25T03:08:21;10.17;;;9.37;;
4821;SDS011;2425;47.794;13.068;2022-07-25T03:10:57;9.77;;;9.00;;
4821;SDS011;2425;47.794;13.068;2022-07-25T03:13:24;10.87;;;9.70;;
4821;SDS011;2425;47.794;13.068;2022-07-25T03:15:51;10.43;;;9.40;;
4821;SDS011;2425;47.794;13.068;2022-07-25T03:18:17;15.73;;;9.60;;
4821;SDS011;2425;47.794;13.068;2022-07-25T03:20:46;10.47;;;9.47;;
4821;SDS011;2425;47.794;13.068;2022-07-25T03:23:12;10.30;;;9.33;;
4821;SDS011;2425;47.794;13.068;2022-07-25T03:25:39;10.73;;;9.73;;
4821;SDS011;2425;47.794;13.068;2022-07-25T03:28:06;9.90;;;9.03;;
4821;SDS011;2425;47.794;13.068;2022-07-25T03:30:33;10.03;;;9.13;;
4821;SDS011;2425;47.794;13.068;2022-07-25T03:32:59;10.87;;;9.93;;
4821;SDS011;2425;47.794;13.068;2022-07-25T03:35:26;10.50;;;9.50;;
4821;SDS011;2425;47.794;13.068;2022-07-25T03:37:54;9.73;;;8.93;;
4821;SDS011;2425;47.794;13.068;2022-07-25T03:40:21;9.50;;;8.53;;
4821;SDS011;2425;47.794;13.068;2022-07-25T03:42:48;9.83;;;9.03;;
4821;SDS011;2425;47.794;13.068;2022-07-25T03:45:15;10.63;;;9.63;;
4821;SDS011;2425;47.794;13.068;2022-07-25T03:47:41;11.00;;;9.90;;
4821;SDS011;2425;47.794;13.068;2022-07-25T03:50:09;10.60;;;9.70;;
4821;SDS011;2425;47.794;13.068;2022-07-25T03:52:36;10.30;;;9.33;;
4821;SDS011;2425;47.794;13.068;2022-07-25T03:55:05;10.67;;;9.60;;
4821;SDS011;2425;47.794;13.068;2022-07-25T03:57:32;10.60;;;9.70;;
4821;SDS011;2425;47.794;13.068;2022-07-25T03:59:59;10.73;;;9.73;;
4821;SDS011;2425;47.794;13.068;2022-07-25T04:02:26;10.67;;;9.77;;
4821;SDS011;2425;47.794;13.068;2022-07-25T04:04:53;12.67;;;9.10;;
4821;SDS011;2425;47.794;13.068;2022-07-25T04:07:20;11.63;;;9.70;;
4821;SDS011;2425;47.794;13.068;2022-07-25T04:09:46;11.17;;;10.03;;
4821;SDS011;2425;47.794;13.068;2022-07-25T04:12:15;15.53;;;10.10;;
4821;SDS011;2425;47.794;13.068;2022-07-25T04:14:41;13.23;;;9.33;;
4821;SDS011;2425;47.794;13.068;2022-07-25T04:17:08;10.40;;;9.50;;
4821;SDS011;2425;47.794;13.068;2022-07-25T04:19:35;10.33;;;9.40;;
4821;SDS011;2425;47.794;13.068;2022-07-25T04:22:02;10.33;;;9.43;;
4821;SDS011;2425;47.794;13.068;2022-07-25T04:24:28;11.07;;;9.73;;
4821;SDS011;2425;47.794;13.068;2022-07-25T04:26:55;10.87;;;9.87;;
4821;SDS011;2425;47.794;13.068;2022-07-25T04:29:23;11.13;;;10.13;;
4821;SDS011;2425;47.794;13.068;2022-07-25T04:31:50;11.43;;;10.33;;
4821;SDS011;2425;47.794;13.068;2022-07-25T04:34:17;11.23;;;10.00;;
4821;SDS011;2425;47.794;13.068;2022-07-25T04:36:44;10.07;;;9.17;;
4821;SDS011;2425;47.794;13.068;2022-07-25T04:39:11;10.47;;;9.37;;
4821;SDS011;2425;47.794;13.068;2022-07-25T04:41:38;9.57;;;8.77;;
4821;SDS011;2425;47.794;13.068;2022-07-25T04:44:04;11.23;;;9.40;;
4821;SDS011;2425;47.794;13.068;2022-07-25T04:46:33;16.30;;;10.23;;
4821;SDS011;2425;47.794;13.068;2022-07-25T04:49:00;11.13;;;9.80;;
4821;SDS011;2425;47.794;13.068;2022-07-25T04:51:27;10.60;;;9.60;;
4821;SDS011;2425;47.794;13.068;2022-07-25T04:53:54;10.83;;;9.73;;
4821;SDS011;2425;47.794;13.068;2022-07-25T04:56:20;13.10;;;10.43;;
4821;SDS011;2425;47.794;13.068;2022-07-25T04:58:47;13.47;;;11.20;;
4821;SDS011;2425;47.794;13.068;2022-07-25T05:01:14;11.70;;;10.50;;
4821;SDS011;2425;47.794;13.068;2022-07-25T05:03:42;10.80;;;9.80;;
4821;SDS011;2425;47.794;13.068;2022-07-25T05:06:09;10.63;;;9.63;;
4821;SDS011;2425;47.794;13.068;2022-07-25T05:08:36;11.37;;;10.20;;
4821;SDS011;2425;47.794;13.068;2022-07-25T05:11:02;11.23;;;10.13;;
4821;SDS011;2425;47.794;13.068;2022-07-25T05:13:29;10.27;;;9.40;;
4821;SDS011;2425;47.794;13.068;2022-07-25T05:15:56;10.77;;;9.83;;
4821;SDS011;2425;47.794;13.068;2022-07-25T05:18:23;11.07;;;10.00;;
4821;SDS011;2425;47.794;13.068;2022-07-25T05:20:51;11.90;;;10.70;;
4821;SDS011;2425;47.794;13.068;2022-07-25T05:23:18;12.10;;;10.30;;
4821;SDS011;2425;47.794;13.068;2022-07-25T05:25:44;10.83;;;9.73;;
4821;SDS011;2425;47.794;13.068;2022-07-25T05:28:11;11.53;;;10.43;;
4821;SDS011;2425;47.794;13.068;2022-07-25T05:30:39;10.73;;;9.50;;
4821;SDS011;2425;47.794;13.068;2022-07-25T05:33:05;12.60;;;9.90;;
4821;SDS011;2425;47.794;13.068;2022-07-25T05:35:32;12.83;;;9.83;;
4821;SDS011;2425;47.794;13.068;2022-07-25T05:38:00;11.40;;;9.87;;
4821;SDS011;2425;47.794;13.068;2022-07-25T05:40:27;11.90;;;10.60;;
4821;SDS011;2425;47.794;13.068;2022-07-25T05:42:54;11.13;;;10.07;;
4821;SDS011;2425;47.794;13.068;2022-07-25T05:45:21;14.10;;;9.90;;
4821;SDS011;2425;47.794;13.068;2022-07-25T05:47:47;12.13;;;9.97;;
4821;SDS011;2425;47.794;13.068;2022-07-25T05:50:14;10.03;;;9.20;;
4821;SDS011;2425;47.794;13.068;2022-07-25T05:52:41;11.40;;;10.30;;
4821;SDS011;2425;47.794;13.068;2022-07-25T05:55:09;11.60;;;9.60;;
4821;SDS011;2425;47.794;13.068;2022-07-25T05:57:37;10.47;;;9.47;;
4821;SDS011;2425;47.794;13.068;2022-07-25T06:00:05;10.50;;;9.53;;
4821;SDS011;2425;47.794;13.068;2022-07-25T06:02:33;10.67;;;9.60;;
4821;SDS011;2425;47.794;13.068;2022-07-25T06:04:59;10.23;;;9.33;;
4821;SDS011;2425;47.794;13.068;2022-07-25T06:07:26;11.13;;;10.13;;
4821;SDS011;2425;47.794;13.068;2022-07-25T06:09:53;10.23;;;9.13;;
4821;SDS011;2425;47.794;13.068;2022-07-25T06:12:21;11.00;;;10.10;;
4821;SDS011;2425;47.794;13.068;2022-07-25T06:14:48;11.47;;;10.33;;
4821;SDS011;2425;47.794;13.068;2022-07-25T06:17:15;10.50;;;9.60;;
4821;SDS011;2425;47.794;13.068;2022-07-25T06:19:41;11.20;;;10.10;;
4821;SDS011;2425;47.794;13.068;2022-07-25T06:22:08;10.60;;;9.70;;
4821;SDS011;2425;47.794;13.068;2022-07-25T06:24:35;10.47;;;9.47;;
4821;SDS011;2425;47.794;13.068;2022-07-25T06:27:02;10.90;;;9.53;;
4821;SDS011;2425;47.794;13.068;2022-07-25T06:29:30;10.07;;;9.10;;
4821;SDS011;2425;47.794;13.068;2022-07-25T06:31:57;11.07;;;9.97;;
4821;SDS011;2425;47.794;13.068;2022-07-25T06:34:24;10.20;;;9.27;;
4821;SDS011;2425;47.794;13.068;2022-07-25T06:36:51;10.33;;;9.43;;
4821;SDS011;2425;47.794;13.068;2022-07-25T06:39:17;10.33;;;9.23;;
4821;SDS011;2425;47.794;13.068;2022-07-25T06:41:44;15.03;;;9.40;;
4821;SDS011;2425;47.794;13.068;2022-07-25T06:44:11;9.80;;;8.90;;
4821;SDS011;2425;47.794;13.068;2022-07-25T06:46:39;9.80;;;9.00;;
4821;SDS011;2425;47.794;13.068;2022-07-25T06:49:06;9.70;;;8.80;;
4821;SDS011;2425;47.794;13.068;2022-07-25T06:51:33;11.00;;;9.70;;
4821;SDS011;2425;47.794;13.068;2022-07-25T06:53:59;10.00;;;9.10;;
4821;SDS011;2425;47.794;13.068;2022-07-25T06:56:26;12.70;;;9.30;;
4821;SDS011;2425;47.794;13.068;2022-07-25T06:58:55;9.07;;;8.37;;
4821;SDS011;2425;47.794;13.068;2022-07-25T07:01:22;13.90;;;9.07;;
4821;SDS011;2425;47.794;13.068;2022-07-25T07:03:50;10.43;;;9.10;;
4821;SDS011;2425;47.794;13.068;2022-07-25T07:06:17;9.97;;;9.17;;
4821;SDS011;2425;47.794;13.068;2022-07-25T07:08:44;10.00;;;9.10;;
4821;SDS011;2425;47.794;13.068;2022-07-25T07:11:11;10.33;;;9.33;;
4821;SDS011;2425;47.794;13.068;2022-07-25T07:13:39;9.40;;;8.60;;
4821;SDS011;2425;47.794;13.068;2022-07-25T07:16:06;8.57;;;7.97;;
4821;SDS011;2425;47.794;13.068;2022-07-25T07:18:33;9.50;;;8.73;;
4821;SDS011;2425;47.794;13.068;2022-07-25T07:21:02;9.63;;;8.83;;
4821;SDS011;2425;47.794;13.068;2022-07-25T07:23:30;9.33;;;8.50;;
4821;SDS011;2425;47.794;13.068;2022-07-25T07:25:57;9.13;;;8.43;;
4821;SDS011;2425;47.794;13.068;2022-07-25T07:28:24;8.87;;;8.13;;
4821;SDS011;2425;47.794;13.068;2022-07-25T07:30:50;9.87;;;8.50;;
4821;SDS011;2425;47.794;13.068;2022-07-25T07:33:17;9.43;;;8.63;;
4821;SDS011;2425;47.794;13.068;2022-07-25T07:35:44;9.70;;;8.80;;
4821;SDS011;2425;47.794;13.068;2022-07-25T07:38:12;9.10;;;8.30;;
4821;SDS011;2425;47.794;13.068;2022-07-25T07:40:39;10.50;;;9.37;;
4821;SDS011;2425;47.794;13.068;2022-07-25T07:43:05;10.07;;;9.07;;
4821;SDS011;2425;47.794;13.068;2022-07-25T07:45:32;10.17;;;9.27;;
4821;SDS011;2425;47.794;13.068;2022-07-25T07:47:59;9.43;;;8.63;;
4821;SDS011;2425;47.794;13.068;2022-07-25T07:50:26;8.80;;;8.10;;
4821;SDS011;2425;47.794;13.068;2022-07-25T07:52:54;9.60;;;8.80;;
4821;SDS011;2425;47.794;13.068;2022-07-25T07:55:23;10.97;;;8.87;;
4821;SDS011;2425;47.794;13.068;2022-07-25T07:58:07;8.52;;;7.82;;
4821;SDS011;2425;47.794;13.068;2022-07-25T08:00:34;9.87;;;9.00;;
4821;SDS011;2425;47.794;13.068;2022-07-25T08:03:03;9.90;;;9.10;;
4821;SDS011;2425;47.794;13.068;2022-07-25T08:05:32;9.83;;;9.03;;
4821;SDS011;2425;47.794;13.068;2022-07-25T08:08:02;9.77;;;8.90;;
4821;SDS011;2425;47.794;13.068;2022-07-25T08:10:32;9.47;;;8.43;;
4821;SDS011;2425;47.794;13.068;2022-07-25T08:13:01;9.43;;;8.73;;
4821;SDS011;2425;47.794;13.068;2022-07-25T08:15:29;9.20;;;8.50;;
4821;SDS011;2425;47.794;13.068;2022-07-25T08:17:55;8.63;;;7.93;;
4821;SDS011;2425;47.794;13.068;2022-07-25T08:20:22;9.57;;;8.67;;
4821;SDS011;2425;47.794;13.068;2022-07-25T08:22:49;8.10;;;7.50;;
4821;SDS011;2425;47.794;13.068;2022-07-25T08:25:16;8.70;;;8.10;;
4821;SDS011;2425;47.794;13.068;2022-07-25T08:27:46;9.27;;;8.10;;
4821;SDS011;2425;47.794;13.068;2022-07-25T08:30:13;8.70;;;8.00;;
4821;SDS011;2425;47.794;13.068;2022-07-25T08:32:45;11.07;;;8.30;;
4821;SDS011;2425;47.794;13.068;2022-07-25T08:35:13;11.43;;;9.00;;
4821;SDS011;2425;47.794;13.068;2022-07-25T08:37:40;8.73;;;8.03;;
4821;SDS011;2425;47.794;13.068;2022-07-25T08:40:07;8.97;;;8.27;;
4821;SDS011;2425;47.794;13.068;2022-07-25T08:42:35;9.80;;;8.90;;
4821;SDS011;2425;47.794;13.068;2022-07-25T08:45:05;9.53;;;8.83;;
4821;SDS011;2425;47.794;13.068;2022-07-25T08:47:33;8.70;;;8.00;;
4821;SDS011;2425;47.794;13.068;2022-07-25T08:50:01;8.90;;;8.20;;
4821;SDS011;2425;47.794;13.068;2022-07-25T08:52:29;9.80;;;9.00;;
4821;SDS011;2425;47.794;13.068;2022-07-25T08:54:59;9.93;;;8.17;;
4821;SDS011;2425;47.794;13.068;2022-07-25T08:57:26;8.93;;;8.23;;
4821;SDS011;2425;47.794;13.068;2022-07-25T08:59:55;8.63;;;7.93;;
4821;SDS011;2425;47.794;13.068;2022-07-25T09:02:23;8.80;;;8.20;;
4821;SDS011;2425;47.794;13.068;2022-07-25T09:04:51;9.00;;;8.30;;
4821;SDS011;2425;47.794;13.068;2022-07-25T09:07:27;8.00;;;7.40;;
4821;SDS011;2425;47.794;13.068;2022-07-25T09:09:55;8.20;;;7.60;;
4821;SDS011;2425;47.794;13.068;2022-07-25T09:12:24;8.40;;;7.70;;
4821;SDS011;2425;47.794;13.068;2022-07-25T09:14:51;8.63;;;8.03;;
4821;SDS011;2425;47.794;13.068;2022-07-25T09:17:18;8.30;;;7.70;;
4821;SDS011;2425;47.794;13.068;2022-07-25T09:19:51;8.47;;;7.80;;
4821;SDS011;2425;47.794;13.068;2022-07-25T09:22:18;8.13;;;7.53;;
4821;SDS011;2425;47.794;13.068;2022-07-25T09:24:45;7.87;;;7.17;;
4821;SDS011;2425;47.794;13.068;2022-07-25T09:27:12;7.87;;;7.37;;
4821;SDS011;2425;47.794;13.068;2022-07-25T09:29:39;7.60;;;7.10;;
4821;SDS011;2425;47.794;13.068;2022-07-25T09:32:13;7.77;;;7.27;;
4821;SDS011;2425;47.794;13.068;2022-07-25T09:34:41;7.43;;;6.83;;
4821;SDS011;2425;47.794;13.068;2022-07-25T09:37:11;8.60;;;7.87;;
4821;SDS011;2425;47.794;13.068;2022-07-25T09:39:40;8.30;;;7.67;;
4821;SDS011;2425;47.794;13.068;2022-07-25T09:42:15;8.07;;;7.37;;
4821;SDS011;2425;47.794;13.068;2022-07-25T09:45:03;7.70;;;7.10;;
4821;SDS011;2425;47.794;13.068;2022-07-25T09:47:32;7.70;;;6.97;;
4821;SDS011;2425;47.794;13.068;2022-07-25T09:50:00;7.50;;;7.00;;
4821;SDS011;2425;47.794;13.068;2022-07-25T09:52:29;7.50;;;6.97;;
4821;SDS011;2425;47.794;13.068;2022-07-25T09:54:59;7.70;;;7.20;;
4821;SDS011;2425;47.794;13.068;2022-07-25T09:57:27;7.80;;;7.30;;
4821;SDS011;2425;47.794;13.068;2022-07-25T09:59:54;7.47;;;7.00;;
4821;SDS011;2425;47.794;13.068;2022-07-25T10:02:25;7.63;;;7.03;;
4821;SDS011;2425;47.794;13.068;2022-07-25T10:04:58;7.60;;;7.10;;
4821;SDS011;2425;47.794;13.068;2022-07-25T10:07:36;7.90;;;7.30;;
4821;SDS011;2425;47.794;13.068;2022-07-25T10:10:04;7.40;;;6.80;;
4821;SDS011;2425;47.794;13.068;2022-07-25T10:12:31;7.70;;;7.10;;
4821;SDS011;2425;47.794;13.068;2022-07-25T10:15:05;7.73;;;7.13;;
4821;SDS011;2425;47.794;13.068;2022-07-25T10:17:33;8.30;;;7.70;;
4821;SDS011;2425;47.794;13.068;2022-07-25T10:20:02;8.57;;;7.77;;
4821;SDS011;2425;47.794;13.068;2022-07-25T10:22:38;7.63;;;7.13;;
4821;SDS011;2425;47.794;13.068;2022-07-25T10:25:08;8.63;;;7.93;;
4821;SDS011;2425;47.794;13.068;2022-07-25T10:27:40;8.43;;;7.83;;
4821;SDS011;2425;47.794;13.068;2022-07-25T10:30:09;9.63;;;8.47;;
4821;SDS011;2425;47.794;13.068;2022-07-25T10:32:36;8.33;;;7.63;;
4821;SDS011;2425;47.794;13.068;2022-07-25T10:35:15;10.07;;;9.23;;
4821;SDS011;2425;47.794;13.068;2022-07-25T10:37:44;9.40;;;8.60;;
4821;SDS011;2425;47.794;13.068;2022-07-25T10:40:23;9.13;;;8.33;;
4821;SDS011;2425;47.794;13.068;2022-07-25T10:42:55;10.03;;;9.20;;
4821;SDS011;2425;47.794;13.068;2022-07-25T10:45:24;9.50;;;8.70;;
4821;SDS011;2425;47.794;13.068;2022-07-25T10:47:52;9.47;;;8.77;;
4821;SDS011;2425;47.794;13.068;2022-07-25T10:50:22;9.57;;;8.77;;
4821;SDS011;2425;47.794;13.068;2022-07-25T10:52:58;9.33;;;8.53;;
4821;SDS011;2425;47.794;13.068;2022-07-25T10:55:26;9.57;;;8.87;;
4821;SDS011;2425;47.794;13.068;2022-07-25T10:57:58;8.73;;;8.03;;
4821;SDS011;2425;47.794;13.068;2022-07-25T11:00:26;9.70;;;8.93;;
4821;SDS011;2425;47.794;13.068;2022-07-25T11:02:54;10.23;;;9.23;;
4821;SDS011;2425;47.794;13.068;2022-07-25T11:05:21;10.10;;;9.20;;
4821;SDS011;2425;47.794;13.068;2022-07-25T11:07:48;9.60;;;8.90;;
4821;SDS011;2425;47.794;13.068;2022-07-25T11:10:23;12.10;;;9.10;;
4821;SDS011;2425;47.794;13.068;2022-07-25T11:12:50;10.70;;;9.17;;
4821;SDS011;2425;47.794;13.068;2022-07-25T11:15:20;11.90;;;9.80;;
4821;SDS011;2425;47.794;13.068;2022-07-25T11:17:48;9.87;;;8.97;;
4821;SDS011;2425;47.794;13.068;2022-07-25T11:20:15;10.07;;;9.03;;
4821;SDS011;2425;47.794;13.068;2022-07-25T11:22:49;10.03;;;9.10;;
4821;SDS011;2425;47.794;13.068;2022-07-25T11:25:19;9.83;;;9.03;;
4821;SDS011;2425;47.794;13.068;2022-07-25T11:27:48;10.07;;;9.13;;
4821;SDS011;2425;47.794;13.068;2022-07-25T11:30:16;9.57;;;8.80;;
4821;SDS011;2425;47.794;13.068;2022-07-25T11:32:45;10.37;;;9.47;;
4821;SDS011;2425;47.794;13.068;2022-07-25T11:35:14;10.83;;;9.83;;
4821;SDS011;2425;47.794;13.068;2022-07-25T11:37:41;10.47;;;9.60;;
4821;SDS011;2425;47.794;13.068;2022-07-25T11:40:13;10.57;;;9.30;;
4821;SDS011;2425;47.794;13.068;2022-07-25T11:42:42;9.93;;;8.67;;
4821;SDS011;2425;47.794;13.068;2022-07-25T11:45:15;10.90;;;9.60;;
4821;SDS011;2425;47.794;13.068;2022-07-25T11:47:43;9.83;;;9.03;;
4821;SDS011;2425;47.794;13.068;2022-07-25T11:50:09;9.80;;;9.10;;
4821;SDS011;2425;47.794;13.068;2022-07-25T11:52:39;9.97;;;9.07;;
4821;SDS011;2425;47.794;13.068;2022-07-25T11:55:07;9.67;;;8.87;;
4821;SDS011;2425;47.794;13.068;2022-07-25T11:57:37;9.27;;;8.50;;
4821;SDS011;2425;47.794;13.068;2022-07-25T12:00:08;10.13;;;9.23;;
4821;SDS011;2425;47.794;13.068;2022-07-25T12:02:36;10.10;;;9.30;;
4821;SDS011;2425;47.794;13.068;2022-07-25T12:05:05;9.90;;;9.10;;
4821;SDS011;2425;47.794;13.068;2022-07-25T12:07:34;10.50;;;9.70;;
4821;SDS011;2425;47.794;13.068;2022-07-25T12:10:02;10.97;;;9.87;;
4821;SDS011;2425;47.794;13.068;2022-07-25T12:12:39;10.93;;;10.03;;
4821;SDS011;2425;47.794;13.068;2022-07-25T12:15:11;10.83;;;9.57;;
4821;SDS011;2425;47.794;13.068;2022-07-25T12:17:39;10.13;;;9.33;;
4821;SDS011;2425;47.794;13.068;2022-07-25T12:20:10;12.33;;;9.57;;
4821;SDS011;2425;47.794;13.068;2022-07-25T12:22:39;9.60;;;8.80;;
4821;SDS011;2425;47.794;13.068;2022-07-25T12:25:06;11.70;;;9.00;;
4821;SDS011;2425;47.794;13.068;2022-07-25T12:27:34;10.13;;;9.23;;
4821;SDS011;2425;47.794;13.068;2022-07-25T12:30:01;11.40;;;9.17;;
4821;SDS011;2425;47.794;13.068;2022-07-25T12:32:29;10.17;;;9.30;;
4821;SDS011;2425;47.794;13.068;2022-07-25T12:34:56;10.80;;;9.70;;
4821;SDS011;2425;47.794;13.068;2022-07-25T12:37:23;9.93;;;9.13;;
4821;SDS011;2425;47.794;13.068;2022-07-25T12:39:50;10.40;;;8.87;;
4821;SDS011;2425;47.794;13.068;2022-07-25T12:42:17;9.70;;;8.90;;
4821;SDS011;2425;47.794;13.068;2022-07-25T12:44:44;9.57;;;8.77;;
4821;SDS011;2425;47.794;13.068;2022-07-25T12:47:11;9.40;;;8.67;;
4821;SDS011;2425;47.794;13.068;2022-07-25T12:49:39;9.10;;;8.30;;
4821;SDS011;2425;47.794;13.068;2022-07-25T12:52:06;9.77;;;8.97;;
4821;SDS011;2425;47.794;13.068;2022-07-25T12:54:32;12.27;;;8.07;;
4821;SDS011;2425;47.794;13.068;2022-07-25T12:56:59;9.10;;;8.30;;
4821;SDS011;2425;47.794;13.068;2022-07-25T12:59:26;9.03;;;8.20;;
4821;SDS011;2425;47.794;13.068;2022-07-25T13:01:53;9.07;;;8.37;;
4821;SDS011;2425;47.794;13.068;2022-07-25T13:04:20;10.23;;;9.10;;
4821;SDS011;2425;47.794;13.068;2022-07-25T13:06:48;8.70;;;7.90;;
4821;SDS011;2425;47.794;13.068;2022-07-25T13:09:14;8.73;;;8.10;;
4821;SDS011;2425;47.794;13.068;2022-07-25T13:11:41;7.97;;;7.27;;
4821;SDS011;2425;47.794;13.068;2022-07-25T13:14:08;8.93;;;8.10;;
4821;SDS011;2425;47.794;13.068;2022-07-25T13:16:35;10.20;;;8.90;;
4821;SDS011;2425;47.794;13.068;2022-07-25T13:19:02;9.17;;;8.40;;
4821;SDS011;2425;47.794;13.068;2022-07-25T13:21:29;8.90;;;8.20;;
4821;SDS011;2425;47.794;13.068;2022-07-25T13:23:57;9.47;;;8.67;;
4821;SDS011;2425;47.794;13.068;2022-07-25T13:26:24;8.30;;;7.60;;
4821;SDS011;2425;47.794;13.068;2022-07-25T13:28:51;9.63;;;8.63;;
4821;SDS011;2425;47.794;13.068;2022-07-25T13:31:18;8.60;;;7.90;;
4821;SDS011;2425;47.794;13.068;2022-07-25T13:33:46;8.60;;;7.90;;
4821;SDS011;2425;47.794;13.068;2022-07-25T13:36:13;9.23;;;8.43;;
4821;SDS011;2425;47.794;13.068;2022-07-25T13:38:40;8.93;;;8.23;;
4821;SDS011;2425;47.794;13.068;2022-07-25T13:41:08;8.83;;;8.13;;
4821;SDS011;2425;47.794;13.068;2022-07-25T13:43:36;8.97;;;7.70;;
4821;SDS011;2425;47.794;13.068;2022-07-25T13:46:02;8.90;;;8.10;;
4821;SDS011;2425;47.794;13.068;2022-07-25T13:48:29;7.77;;;7.17;;
4821;SDS011;2425;47.794;13.068;2022-07-25T13:50:57;8.80;;;8.13;;
4821;SDS011;2425;47.794;13.068;2022-07-25T13:53:23;8.20;;;7.40;;
4821;SDS011;2425;47.794;13.068;2022-07-25T13:55:50;9.47;;;8.67;;
4821;SDS011;2425;47.794;13.068;2022-07-25T13:58:18;8.47;;;7.67;;
4821;SDS011;2425;47.794;13.068;2022-07-25T14:00:45;9.00;;;8.10;;
4821;SDS011;2425;47.794;13.068;2022-07-25T14:03:12;8.80;;;8.10;;
4821;SDS011;2425;47.794;13.068;2022-07-25T14:05:39;9.07;;;8.23;;
4821;SDS011;2425;47.794;13.068;2022-07-25T14:08:06;8.67;;;7.87;;
4821;SDS011;2425;47.794;13.068;2022-07-25T14:10:34;8.67;;;7.97;;
4821;SDS011;2425;47.794;13.068;2022-07-25T14:13:01;10.77;;;7.70;;
4821;SDS011;2425;47.794;13.068;2022-07-25T14:15:29;8.63;;;7.93;;
4821;SDS011;2425;47.794;13.068;2022-07-25T14:17:56;8.90;;;8.20;;
4821;SDS011;2425;47.794;13.068;2022-07-25T14:20:23;7.93;;;7.23;;
4821;SDS011;2425;47.794;13.068;2022-07-25T14:22:50;8.13;;;7.53;;
4821;SDS011;2425;47.794;13.068;2022-07-25T14:25:17;7.90;;;7.30;;
4821;SDS011;2425;47.794;13.068;2022-07-25T14:27:43;8.03;;;7.43;;
4821;SDS011;2425;47.794;13.068;2022-07-25T14:30:11;7.70;;;7.00;;
4821;SDS011;2425;47.794;13.068;2022-07-25T14:32:39;7.53;;;6.97;;
4821;SDS011;2425;47.794;13.068;2022-07-25T14:35:06;7.93;;;7.30;;
4821;SDS011;2425;47.794;13.068;2022-07-25T14:37:35;8.10;;;7.40;;
4821;SDS011;2425;47.794;13.068;2022-07-25T14:40:02;8.87;;;7.97;;
4821;SDS011;2425;47.794;13.068;2022-07-25T14:42:30;8.17;;;7.37;;
4821;SDS011;2425;47.794;13.068;2022-07-25T14:44:57;9.47;;;7.20;;
4821;SDS011;2425;47.794;13.068;2022-07-25T14:47:24;8.17;;;6.80;;
4821;SDS011;2425;47.794;13.068;2022-07-25T14:49:52;7.90;;;6.50;;
4821;SDS011;2425;47.794;13.068;2022-07-25T14:52:18;7.73;;;6.93;;
4821;SDS011;2425;47.794;13.068;2022-07-25T14:54:46;6.67;;;6.17;;
4821;SDS011;2425;47.794;13.068;2022-07-25T14:57:13;7.20;;;6.60;;